Flight Track Log - Related Links

Times and Time Zones

All times are in EDT time to prevent confusion due to time zone crossing. See the UAL4234 flight status page for this flight to view local times or setup timezone preferences in your user account.

Time Position Orientation Groundspeed Altitude Reporting Facility
EDT Latitude Longitude Course Direction KTS MPH feet Rate Location/Type
Mon 10:29:33 AM 35.1911 -80.9503 192° South 173 199 1,800  Level FAA TRACON SMA TRACON (SMA)
Mon 10:29:53 AM 35.1758 -80.9489 176° South 178 205 2,700 1,692 Climbing FAA TRACON SMA TRACON (SMA)
Mon 10:30:12 AM 35.1586 -80.9522 189° South 221 254 2,900 1,231 Climbing FAA TRACON SMA TRACON (SMA)
Mon 10:30:32 AM 35.1472 -80.9769 241° Southwest 231 266 3,500 2,100 Climbing FAA TRACON SMA TRACON (SMA)
Mon 10:30:52 AM 35.1428 -81.0014 257° West 240 276 4,300 2,308 Climbing FAA TRACON SMA TRACON (SMA)
Mon 10:31:11 AM 35.1381 -81.0258 257° West 242 278 5,000 2,400 Climbing FAA TRACON SMA TRACON (SMA)
Mon 10:31:32 AM 35.1319 -81.0581 257° West 248 285 5,900 2,634 Climbing FAA TRACON SMA TRACON (SMA)
Mon 10:31:52 AM 35.1269 -81.0842 257° West 253 291 6,800 2,462 Climbing FAA TRACON SMA TRACON (SMA)
Mon 10:32:00 AM 35.2667 -81.1653 270° West  Level FlightAware Approximate
Mon 10:32:11 AM 35.1219 -81.1100 257° West 253 291 7,500  Level FAA TRACON SMA TRACON (SMA)
Mon 10:32:32 AM 35.1153 -81.1433 256° West 262 302 8,300 2,700 Climbing FAA TRACON SMA TRACON (SMA)
Mon 10:32:51 AM 35.1103 -81.1708 257° West 265 305 9,300 2,700 Climbing FAA TRACON SMA TRACON (SMA)
Mon 10:33:00 AM 35.2111 -81.2405 199° South  Level FlightAware Approximate
Mon 10:33:12 AM 35.1047 -81.1981 256° West 265 305 10,100  Level FAA TRACON SMA TRACON (SMA)
Mon 10:33:32 AM 35.0997 -81.2247 257° West 264 304 10,700 1,692 Climbing FAA TRACON SMA TRACON (SMA)
Mon 10:33:51 AM 35.0928 -81.2589 256° West 268 308 11,200 1,200 Climbing FAA TRACON SMA TRACON (SMA)
Mon 10:34:00 AM 35.1145 -81.2755 192° South  Level FlightAware Approximate
Mon 10:34:12 AM 35.0869 -81.2886 257° West 283 326 11,500  Level FAA TRACON SMA TRACON (SMA)
Mon 10:34:31 AM 35.0783 -81.3200 251° West 313 360 11,800 1,050 Climbing FAA TRACON SMA TRACON (SMA)
Mon 10:34:52 AM 35.0667 -81.3589 250° West 325 374 12,200 1,024 Climbing FAA TRACON SMA TRACON (SMA)
Mon 10:35:12 AM 35.0583 -81.3881 251° West 331 381 12,500 1,385 Climbing FAA TRACON SMA TRACON (SMA)
Mon 10:35:31 AM 35.0475 -81.4236 250° West 329 379 13,100 1,800 Climbing FAA TRACON SMA TRACON (SMA)
Mon 10:35:52 AM 35.0350 -81.4639 249° West 329 379 13,700 1,650 Climbing FAA TRACON SMA TRACON (SMA)
Mon 10:36:11 AM 35.0256 -81.4964 250° West 330 380 14,200 1,650 Climbing FAA TRACON SMA TRACON (SMA)
Mon 10:36:32 AM 35.0158 -81.5289 250° West 330 380 14,800 1,650 Climbing FAA TRACON SMA TRACON (SMA)
Mon 10:36:51 AM 35.0047 -81.5678 251° West 329 379 15,300 1,350 Climbing FAA TRACON SMA TRACON (SMA)
Mon 10:37:12 AM 34.9936 -81.6011 248° West 329 379 15,700 1,024 Climbing FAA TRACON SMA TRACON (SMA)
Mon 10:37:32 AM 34.9836 -81.6336 249° West 331 381 16,000 1,231 Climbing FAA TRACON SMA TRACON (SMA)
Mon 10:37:51 AM 34.9711 -81.6747 250° West 335 386 16,500 1,200 Climbing FAA TRACON SMA TRACON (SMA)
Mon 10:38:12 AM 34.9614 -81.7081 250° West 336 387 16,800 1,050 Climbing FAA TRACON SMA TRACON (SMA)
Mon 10:38:31 AM 34.9506 -81.7414 248° West 339 390 17,200 1,050 Climbing FAA TRACON SMA TRACON (SMA)
Mon 10:38:52 AM 34.9372 -81.7836 249° West 345 397 17,500 878 Climbing FAA TRACON SMA TRACON (SMA)
Mon 10:39:12 AM 34.9256 -81.8172 247° West 348 400 17,800 615 Climbing FAA TRACON SMA TRACON (SMA)
Mon 10:39:31 AM 34.9078 -81.8478 235° Southwest 357 411 17,900 750 Climbing FAA TRACON SMA TRACON (SMA)
Mon 10:39:52 AM 34.8864 -81.8861 236° Southwest 360 414 18,300 1,050 Climbing FAA TRACON SMA TRACON (SMA)
Mon 10:40:11 AM 34.8686 -81.9164 234° Southwest 360 414 18,600 750 Climbing FAA TRACON SMA TRACON (SMA)
Mon 10:40:32 AM 34.8511 -81.9472 235° Southwest 360 414 18,800 878 Climbing FAA TRACON SMA TRACON (SMA)
Mon 10:40:52 AM 34.8297 -81.9867 237° Southwest 361 415 19,200 615 Climbing FAA TRACON SMA TRACON (SMA)
Mon 10:41:11 AM 34.8297 -81.9867 51° Northeast 361 415 19,200 840 Level FAA TRACON SMA TRACON (SMA)
Mon 10:41:42 AM 34.7886 -82.0633 237° Southwest 369 425 19,900 1,043 Climbing Atlanta Center
Mon 10:42:43 AM 34.7275 -82.1661 234° Southwest 374 430 20,800 950 Climbing Atlanta Center
Mon 10:43:42 AM 34.6686 -82.2708 236° Southwest 379 436 21,800 958 Climbing Atlanta Center
Mon 10:44:42 AM 34.6075 -82.3781 235° Southwest 379 436 22,700 893 Climbing Atlanta Center
Mon 10:45:43 AM 34.5461 -82.4828 235° Southwest 379 436 23,600 1,000 Climbing Atlanta Center
Mon 10:46:42 AM 34.4767 -82.6025 235° Southwest 385 443 24,700 1,008 Climbing Atlanta Center
Mon 10:47:42 AM 34.4111 -82.7094 233° Southwest 393 452 25,600 950 Climbing Atlanta Center
Mon 10:48:42 AM 34.3558 -82.8183 238° Southwest 388 447 26,600 950 Climbing Atlanta Center
Mon 10:49:42 AM 34.2922 -82.9175 232° Southwest 382 440 27,500 950 Climbing Atlanta Center
Mon 10:50:42 AM 34.2325 -83.0211 235° Southwest 382 440 28,500 950 Climbing Atlanta Center
Mon 10:51:42 AM 34.1708 -83.1275 235° Southwest 387 445 29,400 850 Climbing Atlanta Center
Mon 10:52:42 AM 34.1214 -83.2183 237° Southwest 377 434 30,200 850 Climbing Atlanta Center
Mon 10:53:42 AM 34.0572 -83.3217 233° Southwest 377 434 31,100 950 Climbing Atlanta Center
Mon 10:54:42 AM 33.9972 -83.4250 235° Southwest 377 434 32,100 1,000 Climbing Atlanta Center
Mon 10:55:42 AM 33.9350 -83.5306 235° Southwest 382 440 33,100 950 Climbing Atlanta Center
Mon 10:56:42 AM 33.8728 -83.6336 234° Southwest 382 440 34,000 893 Climbing Atlanta Center
Mon 10:57:43 AM 33.8044 -83.7539 236° Southwest 391 450 34,900 500 Climbing Atlanta Center
Mon 10:58:42 AM 33.7397 -83.8589 233° Southwest 391 450 35,000 50 Climbing Atlanta Center
Mon 10:59:42 AM 33.6731 -83.9714 235° Southwest 401 461 35,000  Level Atlanta Center
Mon 11:00:42 AM 33.6042 -84.0836 234° Southwest 412 474 35,000 50 Level Atlanta Center
Mon 11:01:42 AM 33.5394 -84.1933 235° Southwest 412 474 35,100 500 Climbing Atlanta Center
Mon 11:02:42 AM 33.4725 -84.3028 234° Southwest 412 474 36,000 450 Climbing Atlanta Center
Mon 11:03:42 AM 33.4139 -84.3997 234° Southwest 407 468 36,000  Level Atlanta Center
Mon 11:04:42 AM 33.3467 -84.5139 235° Southwest 407 468 36,000  Level Atlanta Center
Mon 11:05:42 AM 33.2814 -84.6253 235° Southwest 412 474 36,000  Level Atlanta Center
Mon 11:06:42 AM 33.2142 -84.7342 234° Southwest 407 468 36,000  Level Atlanta Center
Mon 11:07:42 AM 33.1489 -84.8403 234° Southwest 401 461 36,000  Level Atlanta Center
Mon 11:08:42 AM 33.0769 -84.9561 233° Southwest 407 468 36,000  Level Atlanta Center
Mon 11:09:42 AM 33.0094 -85.0644 233° Southwest 407 468 36,000  Level Atlanta Center
Mon 11:10:42 AM 32.9458 -85.1650 233° Southwest 400 460 36,000  Level Atlanta Center
Mon 11:11:42 AM 32.8800 -85.2756 235° Southwest 400 460 36,000  Level Atlanta Center
Mon 11:12:42 AM 32.8122 -85.3808 233° Southwest 400 460 36,000  Level Atlanta Center
Mon 11:13:42 AM 32.7464 -85.4861 233° Southwest 406 467 36,000  Level Atlanta Center
Mon 11:14:42 AM 32.6822 -85.5961 235° Southwest 406 467 36,000  Level Atlanta Center
Mon 11:15:42 AM 32.6142 -85.7008 232° Southwest 406 467 36,000  Level Atlanta Center
Mon 11:16:42 AM 32.5481 -85.8081 234° Southwest 406 467 36,000  Level Atlanta Center
Mon 11:17:42 AM 32.4797 -85.9078 231° Southwest 420 483 36,000  Level Atlanta Center
Mon 11:18:42 AM 32.4114 -86.0144 233° Southwest 420 483 36,000  Level Atlanta Center
Mon 11:19:42 AM 32.3469 -86.1189 234° Southwest 412 474 36,000  Level Atlanta Center
Mon 11:20:42 AM 32.2803 -86.2253 233° Southwest 412 474 36,000  Level Atlanta Center
Mon 11:21:42 AM 32.2136 -86.3367 235° Southwest 407 468 36,000  Level Atlanta Center
Mon 11:22:42 AM 32.1428 -86.4475 233° Southwest 400 460 36,000  Level Atlanta Center
Mon 11:23:42 AM 32.0656 -86.5486 228° Southwest 405 466 36,000  Level Atlanta Center
Mon 11:24:42 AM 31.9925 -86.6517 230° Southwest 411 473 36,000  Level Atlanta Center
Mon 11:26:49 AM 31.8447 -86.8550 229° Southwest 410 472 36,000  Level Houston Center
Mon 11:27:52 AM 31.7706 -86.9567 229° Southwest 408 470 36,000  Level Houston Center
Mon 11:28:54 AM 31.6769 -87.0736 227° Southwest 408 470 36,000  Level Houston Center
Mon 11:29:56 AM 31.6022 -87.1744 229° Southwest 409 471 36,000  Level Houston Center
Mon 11:30:58 AM 31.5289 -87.2769 230° Southwest 409 471 36,000  Level Houston Center
Mon 11:32:00 AM 31.4544 -87.3778 229° Southwest 409 471 36,000  Level Houston Center
Mon 11:33:02 AM 31.3808 -87.4794 230° Southwest 409 471 36,000  Level Houston Center
Mon 11:34:04 AM 31.3078 -87.5792 229° Southwest 404 465 36,000  Level Houston Center
Mon 11:35:07 AM 31.2217 -87.6942 229° Southwest 391 450 36,000  Level Houston Center
Mon 11:36:09 AM 31.1606 -87.7758 229° Southwest 387 445 36,000  Level Houston Center
Mon 11:37:11 AM 31.0775 -87.8889 229° Southwest 383 441 36,000  Level Houston Center
Mon 11:38:13 AM 31.0075 -87.9822 229° Southwest 382 440 36,000  Level Houston Center
Mon 11:39:15 AM 30.9358 -88.0761 228° Southwest 386 444 36,000  Level Houston Center
Mon 11:40:17 AM 30.8642 -88.1708 229° Southwest 390 449 36,000  Level Houston Center
Mon 11:41:19 AM 30.7939 -88.2656 229° Southwest 388 447 36,000  Level Houston Center
Mon 11:42:22 AM 30.7258 -88.3617 231° Southwest 386 444 36,000  Level Houston Center
Mon 11:43:24 AM 30.6822 -88.5033 250° West 380 437 36,000  Level Houston Center
Mon 11:44:26 AM 30.6472 -88.6228 251° West 386 444 36,000  Level Houston Center
Mon 11:45:28 AM 30.6119 -88.7406 251° West 386 444 36,000  Level Houston Center
Mon 11:46:30 AM 30.5775 -88.8603 252° West 390 449 36,000  Level Houston Center
Mon 11:47:32 AM 30.5436 -88.9761 251° West 389 448 36,000  Level Houston Center
Mon 11:48:34 AM 30.5011 -89.1178 251° West 388 447 36,000  Level Houston Center
Mon 11:49:36 AM 30.4658 -89.2369 251° West 389 448 36,000  Level Houston Center
Mon 11:50:39 AM 30.4322 -89.3556 252° West 387 445 36,000  Level Houston Center
Mon 11:51:41 AM 30.3956 -89.4750 250° West 392 451 36,000  Level Houston Center
Mon 11:52:43 AM 30.3603 -89.5939 251° West 390 449 36,000  Level Houston Center
Mon 11:53:45 AM 30.3206 -89.7167 249° West 395 455 36,000  Level Houston Center
Mon 11:54:47 AM 30.2839 -89.8358 250° West 396 456 36,000  Level Houston Center
Mon 11:55:49 AM 30.2469 -89.9644 252° West 396 456 36,000  Level Houston Center
Mon 11:56:51 AM 30.2100 -90.0850 251° West 397 457 36,000  Level Houston Center
Mon 11:57:53 AM 30.1653 -90.2294 250° West 399 459 36,000  Level Houston Center
Mon 11:58:56 AM 30.1286 -90.3489 250° West 397 457 36,000  Level Houston Center
Mon 11:59:58 AM 30.0919 -90.4686 251° West 395 455 36,000  Level Houston Center
Mon 12:01:00 PM 30.0544 -90.5881 250° West 397 457 36,000  Level Houston Center
Mon 12:02:02 PM 30.0158 -90.7081 250° West 399 459 36,000  Level Houston Center
Mon 12:03:04 PM 29.9703 -90.8528 250° West 401 461 36,000  Level Houston Center
Mon 12:04:06 PM 29.9339 -90.9739 251° West 401 461 36,000  Level Houston Center
Mon 12:05:08 PM 29.8961 -91.0950 250° West 403 464 36,000  Level Houston Center
Mon 12:06:10 PM 29.8569 -91.2161 250° West 404 465 36,000  Level Houston Center
Mon 12:07:13 PM 29.8181 -91.3378 250° West 403 464 36,000  Level Houston Center
Mon 12:08:15 PM 29.7794 -91.4592 250° West 404 465 36,000  Level Houston Center
Mon 12:09:17 PM 29.7333 -91.6036 250° West 403 464 36,000  Level Houston Center
Mon 12:10:19 PM 29.6944 -91.7247 250° West 404 465 36,000  Level Houston Center
Mon 12:11:21 PM 29.6517 -91.8539 249° West 405 466 36,000  Level Houston Center
Mon 12:12:23 PM 29.6131 -91.9747 250° West 403 464 36,000  Level Houston Center
Mon 12:13:25 PM 29.5744 -92.0964 250° West 405 466 36,000  Level Houston Center
Mon 12:14:27 PM 29.5350 -92.2161 249° West 404 465 36,000  Level Houston Center
Mon 12:15:30 PM 29.4967 -92.3353 250° West 399 459 36,000  Level Houston Center
Mon 12:16:32 PM 29.4586 -92.4544 250° West 397 457 36,000  Level Houston Center
Mon 12:17:34 PM 29.4631 -92.6050 272° West 395 455 36,000  Level Houston Center
Mon 12:18:36 PM 29.4697 -92.7308 274° West 395 455 36,000  Level Houston Center
Mon 12:19:38 PM 29.4750 -92.8569 273° West 397 457 36,000  Level Houston Center
Mon 12:20:40 PM 29.4806 -92.9833 273° West 396 456 36,000  Level Houston Center
Mon 12:21:43 PM 29.4858 -93.1106 273° West 397 457 36,000 -1,008 Level Houston Center
Mon 12:22:45 PM 29.4908 -93.2389 273° West 402 463 33,900 -3,048 Descending Houston Center
Mon 12:23:47 PM 29.4975 -93.3922 273° West 397 457 29,700 -3,677 Descending Houston Center
Mon 12:24:49 PM 29.5025 -93.5256 272° West 415 478 26,300 -2,710 Descending Houston Center
Mon 12:25:51 PM 29.5072 -93.6622 272° West 424 488 24,100 -2,177 Descending Houston Center
Mon 12:26:53 PM 29.5128 -93.7986 273° West 428 493 21,800 -2,177 Descending Houston Center
Mon 12:27:55 PM 29.5175 -93.9308 272° West 419 482 19,600 -2,226 Descending Houston Center
Mon 12:28:57 PM 29.5225 -94.0539 273° West 399 459 17,200 -2,550 Descending Houston Center
Mon 12:29:15 PM 29.5256 -94.1108 274° West 380 437 16,200 -2,381 Descending Houston Center
Mon 12:30:00 PM 29.5272 -94.1925 271° West 387 445 14,700 -2,294 Descending Houston Center
Mon 12:30:23 PM 29.5289 -94.2497 272° West 387 445 13,600 -1,645 Descending Houston Center
Mon 12:31:02 PM 29.5314 -94.3133 273° West 382 440 13,000 -545 Descending Houston Center
Mon 12:31:18 PM 29.5372 -94.3544 279° West 339 390 13,100 -677 Climbing Houston Center
Mon 12:32:04 PM 29.5636 -94.4144 297° West 344 396 12,300 -1,645 Descending Houston Center
Mon 12:32:20 PM 29.5792 -94.4572 293° West 340 391 11,400 -1,839 Descending Houston Center
Mon 12:33:06 PM 29.6036 -94.5097 298° West 336 387 10,400 -1,377 Descending Houston Center
Mon 12:33:21 PM 29.6219 -94.5525 296° West 330 380 10,000 -316 Descending Houston Center
Mon 12:34:22 PM 29.6631 -94.6508 296° West 333 383 10,000  Level Houston Center
Mon 12:35:10 PM 29.6928 -94.7189 297° West 333 383 10,000 55 Level Houston Center
Mon 12:36:12 PM 29.7331 -94.8139 296° West 332 382 10,100 -96 Climbing Houston Center
Mon 12:37:15 PM 29.7725 -94.9072 296° West 329 379 9,800 -1,152 Descending Houston Center
Mon 12:38:17 PM 29.8069 -94.9881 296° West 289 333 7,700 -1,790 Descending Houston Center
Mon 12:39:19 PM 29.8461 -95.0822 296° West 274 315 6,100 -823 Descending Houston Center
Mon 12:40:21 PM 29.8792 -95.1586 297° West 270 311 6,000 -45 Descending Houston Center
Mon 12:41:32 PM 29.8975 -95.2622 282° West 263 303 6,000 48 Level Houston Center
Mon 12:42:25 PM 29.8994 -95.3206 272° West 262 302 6,100 52 Climbing Houston Center
Mon 12:43:27 PM 29.9008 -95.4186 271° West 257 296 6,100 -48 Level Houston Center
Mon 12:44:29 PM 29.9006 -95.4994 270° West 254 292 6,000 -96 Descending Houston Center
Mon 12:45:32 PM 29.9008 -95.5750 270° West 222 255 5,900  Descending Houston Center
Mon 12:46:33 PM 29.9011 -95.6497 270° West 218 251 6,000 97 Climbing Houston Center
Mon 12:47:36 PM 29.9019 -95.7094 271° West 218 251 6,100 -96 Climbing Houston Center
Mon 12:48:38 PM 29.9011 -95.7867 269° West 204 235 5,800 -484 Descending Houston Center
Mon 12:49:40 PM 29.9583 -95.8025 347° North 235 270 5,100 -339 Descending Houston Center
Mon 12:50:42 PM 29.9931 -95.7525 51° Northeast 215 247 5,100  Level Houston Center
Mon 12:51:44 PM 29.9917 -95.6892 91° East 200 230 5,100 -192 Level Houston Center
Mon 12:52:47 PM 29.9922 -95.6250 89° East 199 229 4,700 -720 Descending Houston Center
Mon 12:53:49 PM 29.9931 -95.5614 89° East 198 228 3,600 -1,065 Descending Houston Center

Login

Don't have an account? Register now (free) for customized features, flight alerts, and more!